Time;durP1;ratioP1;P1;durP2;ratioP2;P2;SDS_P1;SDS_P2;PMS_P1;PMS_P2;Temp;Humidity;BMP_temperature;BMP_pressure;BME280_temperature;BME280_humidity;BME280_pressure;Samples;Min_cycle;Max_cycle;Signal;HPM_P1;HPM_P2
2022/09/13 00:00:25;;;;;;;3.90;3.60;;;18.20;97.40;;;;;;10392699;28;20572;-78
2022/09/13 00:05:28;;;;;;;3.90;3.70;;;18.10;97.00;;;;;;10410067;28;20206;-78
2022/09/13 00:10:31;;;;;;;4.00;3.80;;;18.10;97.20;;;;;;10386808;28;20263;-78
2022/09/13 00:15:36;;;;;;;3.77;3.57;;;18.10;97.60;;;;;;10416770;28;20252;-78
2022/09/13 00:20:38;;;;;;;4.00;3.70;;;18.00;97.40;;;;;;10384647;28;20671;-79
2022/09/13 00:25:41;;;;;;;3.70;3.50;;;18.00;97.10;;;;;;10417909;28;20203;-78
2022/09/13 00:30:44;;;;;;;3.50;3.30;;;18.00;97.50;;;;;;10392874;28;20213;-78
2022/09/13 00:35:46;;;;;;;5.40;3.33;;;18.00;98.20;;;;;;10409892;28;20193;-78
2022/09/13 00:40:48;;;;;;;3.10;2.90;;;18.00;97.70;;;;;;10391869;28;20224;-78
2022/09/13 00:45:52;;;;;;;3.87;3.67;;;18.00;97.60;;;;;;10407574;28;20310;-78
2022/09/13 00:50:56;;;;;;;3.70;3.50;;;18.00;97.40;;;;;;10382896;28;20224;-78
2022/09/13 00:56:01;;;;;;;3.57;3.27;;;18.00;97.20;;;;;;10408318;28;20673;-78
2022/09/13 01:01:07;;;;;;;3.37;3.17;;;17.90;97.50;;;;;;10381531;28;20225;-78
2022/09/13 01:06:13;;;;;;;3.73;3.53;;;17.90;97.70;;;;;;10407265;28;20207;-78
2022/09/13 01:11:24;;;;;;;3.70;3.50;;;17.80;98.00;;;;;;10379174;28;20275;-78
2022/09/13 01:16:27;;;;;;;3.33;3.13;;;17.70;98.40;;;;;;10406931;28;20574;-78
2022/09/13 01:22:00;;;;;;;3.57;3.30;;;17.70;97.70;;;;;;10381218;28;20288;-78
2022/09/13 01:27:52;;;;;;;3.40;3.20;;;17.70;98.00;;;;;;10402792;28;20249;-78
2022/09/13 01:33:29;;;;;;;3.40;3.10;;;17.70;97.90;;;;;;10335919;28;20232;-78
2022/09/13 01:38:45;;;;;;;3.43;3.13;;;17.60;98.30;;;;;;10391968;28;20207;-78
2022/09/13 01:43:55;;;;;;;4.93;3.23;;;17.60;98.00;;;;;;10401828;28;20197;-78
2022/09/13 01:49:07;;;;;;;3.40;3.20;;;17.50;98.20;;;;;;10387826;28;20655;-78
2022/09/13 01:54:18;;;;;;;3.30;3.10;;;17.50;98.40;;;;;;10396961;28;20599;-78
2022/09/13 01:59:24;;;;;;;4.70;2.87;;;17.40;98.80;;;;;;10386835;28;20215;-77
2022/09/13 02:04:35;;;;;;;3.30;3.20;;;17.40;99.00;;;;;;10396352;28;20689;-78
2022/09/13 02:09:42;;;;;;;3.60;3.40;;;17.40;98.60;;;;;;10383753;28;20218;-77
2022/09/13 02:14:53;;;;;;;3.40;3.30;;;17.40;98.80;;;;;;10397906;28;20202;-78
2022/09/13 02:19:59;;;;;;;3.70;3.43;;;17.40;99.10;;;;;;10386211;28;20288;-78
2022/09/13 02:25:06;;;;;;;3.33;3.23;;;17.40;99.00;;;;;;10398748;28;20289;-78
2022/09/13 02:30:10;;;;;;;4.63;3.57;;;17.40;99.10;;;;;;10386944;28;20218;-77
2022/09/13 02:35:20;;;;;;;3.63;3.43;;;17.30;99.50;;;;;;10405784;28;20194;-78
2022/09/13 02:40:26;;;;;;;3.47;3.30;;;17.30;99.30;;;;;;10384786;28;20207;-78
2022/09/13 02:45:34;;;;;;;4.20;4.00;;;17.30;99.00;;;;;;10375117;28;20215;-78
2022/09/13 02:50:46;;;;;;;4.07;3.87;;;17.30;99.50;;;;;;10405263;28;20301;-78
2022/09/13 02:55:54;;;;;;;4.47;4.17;;;17.30;99.90;;;;;;10387011;28;20199;-78
2022/09/13 03:00:57;;;;;;;4.03;3.73;;;17.30;99.40;;;;;;10405821;28;20220;-78
2022/09/13 03:06:00;;;;;;;4.27;4.07;;;17.30;99.80;;;;;;10387674;28;20210;-78
2022/09/13 03:11:11;;;;;;;4.93;4.60;;;17.40;99.50;;;;;;10403796;28;20258;-78
2022/09/13 03:16:26;;;;;;;4.10;3.80;;;17.40;99.30;;;;;;10384377;28;20191;-79
2022/09/13 03:21:51;;;;;;;4.83;4.50;;;17.50;99.40;;;;;;10409074;28;20224;-79
2022/09/13 03:27:06;;;;;;;4.80;4.50;;;17.50;99.60;;;;;;10424806;28;20226;-79
2022/09/13 03:32:20;;;;;;;4.40;4.20;;;17.50;99.80;;;;;;10366947;28;20679;-78
2022/09/13 03:37:29;;;;;;;5.13;4.83;;;17.60;99.90;;;;;;10417663;28;20209;-80
2022/09/13 03:42:37;;;;;;;5.17;4.87;;;17.60;99.40;;;;;;10381281;28;20205;-77
2022/09/13 03:47:43;;;;;;;5.40;5.00;;;17.60;99.90;;;;;;10415612;28;20225;-78
2022/09/13 03:52:50;;;;;;;5.57;5.10;;;17.60;99.90;;;;;;10381205;28;20199;-78
2022/09/13 03:57:52;;;;;;;5.50;5.20;;;17.50;99.60;;;;;;10418674;28;20226;-78
2022/09/13 04:02:54;;;;;;;5.47;5.20;;;17.50;99.90;;;;;;10382255;28;20552;-78
2022/09/13 04:07:57;;;;;;;8.27;7.40;;;17.50;99.90;;;;;;10417248;28;20222;-78
2022/09/13 04:13:00;;;;;;;6.23;5.90;;;17.50;99.90;;;;;;10384399;28;20272;-78
2022/09/13 04:18:02;;;;;;;6.07;5.77;;;17.40;99.50;;;;;;10417464;28;20217;-78
2022/09/13 04:23:05;;;;;;;6.13;5.83;;;17.40;99.30;;;;;;10385350;28;20262;-78
2022/09/13 04:28:08;;;;;;;5.70;5.40;;;17.30;99.90;;;;;;10419051;28;20225;-78
2022/09/13 04:33:10;;;;;;;6.03;5.67;;;17.30;99.90;;;;;;10387695;28;20300;-78
2022/09/13 04:38:13;;;;;;;6.57;6.17;;;17.20;99.90;;;;;;10419806;28;20210;-78
2022/09/13 04:43:15;;;;;;;5.30;5.00;;;17.20;99.90;;;;;;10389970;28;20674;-78
2022/09/13 04:48:17;;;;;;;6.70;6.10;;;17.20;99.90;;;;;;10419960;28;20221;-78
2022/09/13 04:53:21;;;;;;;4.30;4.10;;;17.20;99.90;;;;;;10387455;28;20205;-78
2022/09/13 04:58:23;;;;;;;4.03;3.73;;;17.30;99.90;;;;;;10416392;28;20214;-78
2022/09/13 05:03:25;;;;;;;5.70;5.33;;;17.40;99.90;;;;;;10388992;28;20195;-78
2022/09/13 05:08:28;;;;;;;4.73;3.50;;;17.40;99.90;;;;;;10416636;28;20226;-79
2022/09/13 05:13:31;;;;;;;4.63;4.00;;;17.40;99.90;;;;;;10388863;28;20657;-78
2022/09/13 05:18:34;;;;;;;4.70;4.40;;;17.40;99.90;;;;;;10408315;28;20543;-78
2022/09/13 05:23:38;;;;;;;5.10;4.90;;;17.50;99.90;;;;;;10385031;28;20659;-79
2022/09/13 05:28:40;;;;;;;5.23;4.93;;;17.50;99.90;;;;;;10408829;28;20691;-78
2022/09/13 05:33:42;;;;;;;5.07;4.67;;;17.50;99.90;;;;;;10383929;28;20209;-79
2022/09/13 05:38:46;;;;;;;5.67;5.27;;;17.50;99.90;;;;;;10406322;28;20244;-79
2022/09/13 05:43:48;;;;;;;5.00;4.60;;;17.50;99.90;;;;;;10382399;28;20713;-80
2022/09/13 05:48:50;;;;;;;5.23;4.83;;;17.40;99.90;;;;;;10404813;28;20256;-79
2022/09/13 05:53:54;;;;;;;8.70;5.17;;;17.50;99.90;;;;;;10383840;28;20191;-79
2022/09/13 05:58:56;;;;;;;5.97;5.53;;;17.50;99.90;;;;;;10405158;28;20232;-79
2022/09/13 06:03:59;;;;;;;5.83;5.53;;;17.50;99.90;;;;;;10383277;28;20187;-79
2022/09/13 06:09:05;;;;;;;5.27;5.07;;;17.50;99.90;;;;;;10403690;28;20214;-79
2022/09/13 06:14:07;;;;;;;5.00;4.60;;;17.60;99.90;;;;;;10384929;28;20682;-80
2022/09/13 06:19:09;;;;;;;5.73;5.33;;;17.70;99.90;;;;;;10404404;28;20210;-79
2022/09/13 06:24:13;;;;;;;4.90;4.70;;;17.90;99.90;;;;;;10384546;28;20229;-79
2022/09/13 06:29:15;;;;;;;6.20;5.70;;;18.00;99.90;;;;;;10406214;28;20319;-79
2022/09/13 06:34:17;;;;;;;5.80;5.50;;;18.10;99.90;;;;;;10394132;28;20308;-79
2022/09/13 06:39:21;;;;;;;5.73;5.33;;;18.20;99.90;;;;;;10411706;28;20214;-79
2022/09/13 06:44:24;;;;;;;5.67;5.27;;;18.20;99.90;;;;;;10398547;28;20262;-80
2022/09/13 06:49:28;;;;;;;6.10;5.70;;;18.20;99.90;;;;;;10418193;28;20236;-79
2022/09/13 06:54:31;;;;;;;28.70;18.53;;;18.20;99.90;;;;;;10397241;28;20194;-79
2022/09/13 06:59:33;;;;;;;6.93;6.33;;;18.20;99.90;;;;;;10414990;28;20213;-79
2022/09/13 07:04:35;;;;;;;24.20;16.47;;;18.20;99.90;;;;;;10404960;28;20218;-79
2022/09/13 07:09:42;;;;;;;15.70;10.93;;;18.20;99.90;;;;;;10419137;28;20333;-79
2022/09/13 07:14:44;;;;;;;7.83;7.23;;;18.30;99.90;;;;;;10410928;28;20198;-80
2022/09/13 07:19:46;;;;;;;6.10;5.60;;;18.30;99.90;;;;;;10423508;28;20305;-79
2022/09/13 07:24:49;;;;;;;6.87;6.47;;;18.50;99.90;;;;;;10407493;28;20198;-80
2022/09/13 07:29:51;;;;;;;6.33;5.93;;;18.70;99.90;;;;;;10408735;28;20765;-79
2022/09/13 07:34:53;;;;;;;7.10;6.60;;;18.80;99.90;;;;;;10400178;28;20218;-79
2022/09/13 07:39:57;;;;;;;5.30;4.90;;;18.90;99.90;;;;;;10409838;28;20257;-79
2022/09/13 07:44:59;;;;;;;6.10;5.80;;;19.10;99.90;;;;;;10402354;28;20257;-79
2022/09/13 07:50:01;;;;;;;6.57;5.90;;;19.20;99.90;;;;;;10406886;28;20245;-79
2022/09/13 07:55:05;;;;;;;5.50;5.20;;;19.30;99.90;;;;;;10401531;28;20194;-80
2022/09/13 08:00:09;;;;;;;8.27;7.47;;;19.40;99.90;;;;;;10408545;28;20218;-78
2022/09/13 08:05:14;;;;;;;7.10;6.50;;;19.60;99.90;;;;;;10399425;28;20309;-78
2022/09/13 08:10:17;;;;;;;6.67;6.07;;;19.90;99.90;;;;;;10405338;28;20653;-79
2022/09/13 08:15:19;;;;;;;6.23;5.63;;;20.20;99.30;;;;;;10400111;28;20203;-79
2022/09/13 08:20:21;;;;;;;8.30;6.63;;;20.50;99.00;;;;;;10407652;28;20217;-78
2022/09/13 08:25:26;;;;;;;8.77;6.17;;;20.80;99.00;;;;;;10400989;28;20218;-79
2022/09/13 08:30:32;;;;;;;7.33;5.53;;;21.00;98.80;;;;;;10405263;28;20227;-79
2022/09/13 08:35:34;;;;;;;6.13;5.57;;;21.20;97.80;;;;;;10400005;28;20651;-80
2022/09/13 08:40:42;;;;;;;5.60;5.10;;;21.30;97.50;;;;;;10391932;28;20218;-79
2022/09/13 08:45:50;;;;;;;6.37;5.87;;;21.40;98.10;;;;;;10401732;28;20230;-79
2022/09/13 08:50:58;;;;;;;7.10;6.40;;;21.40;97.90;;;;;;10405405;28;20214;-80
2022/09/13 08:56:07;;;;;;;6.10;5.53;;;21.60;98.30;;;;;;10410634;28;20282;-80
2022/09/13 09:01:19;;;;;;;8.33;6.13;;;21.80;97.70;;;;;;10404946;28;20212;-79
2022/09/13 09:06:22;;;;;;;6.80;6.20;;;22.00;97.50;;;;;;10395795;28;20229;-80
2022/09/13 09:11:34;;;;;;;4.90;4.50;;;22.20;97.30;;;;;;10435058;23;20233;-79
2022/09/13 09:16:41;;;;;;;5.77;5.40;;;22.40;96.90;;;;;;10392994;28;20285;-79
2022/09/13 09:21:44;;;;;;;6.50;6.00;;;22.60;97.20;;;;;;10385069;28;20226;-79
2022/09/13 09:26:48;;;;;;;5.93;5.53;;;22.80;97.20;;;;;;10392910;28;20206;-80
2022/09/13 09:32:02;;;;;;;5.40;5.00;;;22.90;96.50;;;;;;10405786;28;20224;-79
2022/09/13 09:37:10;;;;;;;9.10;5.53;;;23.20;96.10;;;;;;10394784;28;20191;-80
2022/09/13 09:42:17;;;;;;;6.97;5.20;;;23.40;95.80;;;;;;10407860;28;20662;-79
2022/09/13 09:47:22;;;;;;;5.70;4.90;;;23.60;95.70;;;;;;10389211;28;20226;-79
2022/09/13 09:52:29;;;;;;;6.53;5.50;;;23.90;95.50;;;;;;10404786;28;20200;-79
2022/09/13 09:57:54;;;;;;;6.20;5.47;;;24.20;95.10;;;;;;10390820;28;20210;-79
2022/09/13 10:03:00;;;;;;;5.10;4.70;;;24.40;95.00;;;;;;10406626;28;20296;-79
2022/09/13 10:08:04;;;;;;;6.53;5.90;;;24.50;94.60;;;;;;10386884;28;20226;-80
2022/09/13 10:13:14;;;;;;;6.27;5.40;;;24.50;94.10;;;;;;10405938;28;20209;-79
2022/09/13 10:18:18;;;;;;;5.27;5.07;;;24.40;93.50;;;;;;10386423;28;20696;-79
2022/09/13 10:23:21;;;;;;;5.40;4.00;;;24.30;92.90;;;;;;10406888;28;20583;-80
2022/09/13 10:28:25;;;;;;;4.23;3.93;;;24.10;92.00;;;;;;10385813;28;20229;-80
2022/09/13 10:33:32;;;;;;;5.03;4.70;;;23.90;92.60;;;;;;10406416;28;20193;-80
2022/09/13 10:38:37;;;;;;;4.80;4.50;;;23.70;93.30;;;;;;10384812;28;20234;-80
2022/09/13 10:43:41;;;;;;;4.50;4.30;;;23.50;92.60;;;;;;10408762;28;20209;-80
2022/09/13 10:48:54;;;;;;;4.77;4.33;;;23.40;92.80;;;;;;10368441;28;20253;-80
2022/09/13 10:54:10;;;;;;;5.07;4.57;;;23.50;92.30;;;;;;10407839;28;20201;-80
2022/09/13 10:59:21;;;;;;;5.10;4.57;;;23.40;92.60;;;;;;10366820;28;20697;-80
2022/09/13 11:04:50;;;;;;;6.30;5.80;;;23.50;92.40;;;;;;10410230;28;20216;-80
2022/09/13 11:09:58;;;;;;;11.13;4.23;;;23.50;92.50;;;;;;10379351;28;20218;-80
2022/09/13 11:15:14;;;;;;;4.37;3.97;;;23.50;91.90;;;;;;10414688;28;20537;-80
2022/09/13 11:20:24;;;;;;;3.93;3.63;;;23.50;92.70;;;;;;10384352;28;20216;-80
2022/09/13 11:25:39;;;;;;;5.13;4.83;;;23.60;93.50;;;;;;10415921;28;20197;-81
2022/09/13 11:30:55;;;;;;;5.07;4.60;;;23.70;92.60;;;;;;10376018;28;20214;-79
2022/09/13 11:36:16;;;;;;;4.60;4.20;;;23.80;91.30;;;;;;10415762;28;20201;-79
2022/09/13 11:41:31;;;;;;;4.43;4.23;;;24.00;91.20;;;;;;10385808;28;20633;-80
2022/09/13 11:46:41;;;;;;;3.93;3.63;;;24.00;90.80;;;;;;10416463;28;20190;-80
2022/09/13 11:51:54;;;;;;;4.40;4.13;;;24.10;88.00;;;;;;10390328;28;20316;-80
2022/09/13 11:56:59;;;;;;;4.80;4.30;;;24.30;86.00;;;;;;10417515;28;20622;-80
2022/09/13 12:02:17;;;;;;;4.70;4.50;;;24.20;89.30;;;;;;10390264;28;20631;-80
2022/09/13 12:07:30;;;;;;;4.07;3.87;;;24.10;88.40;;;;;;10414061;28;20225;-81
2022/09/13 12:12:36;;;;;;;5.87;4.17;;;24.20;86.70;;;;;;10391357;28;20573;-78
2022/09/13 12:17:43;;;;;;;3.57;3.47;;;24.30;85.10;;;;;;10410515;28;20233;-79
2022/09/13 12:22:47;;;;;;;3.80;3.60;;;24.30;85.70;;;;;;10389581;28;20194;-80
2022/09/13 12:27:57;;;;;;;3.10;2.90;;;24.30;84.30;;;;;;10410674;28;20222;-78
2022/09/13 12:33:00;;;;;;;3.30;3.20;;;24.30;87.10;;;;;;10388863;28;20202;-80
2022/09/13 12:38:25;;;;;;;2.93;2.73;;;24.30;86.20;;;;;;10410594;28;20242;-79
2022/09/13 12:44:01;;;;;;;4.10;3.90;;;24.50;86.00;;;;;;10407756;28;20205;-79
2022/09/13 12:49:32;;;;;;;3.60;3.40;;;24.60;83.30;;;;;;10402650;28;20215;-80
2022/09/13 12:55:05;;;;;;;4.70;4.47;;;24.80;82.50;;;;;;10379955;28;20209;-81
2022/09/13 13:00:20;;;;;;;3.60;3.50;;;24.80;85.40;;;;;;10392887;28;20210;-79
2022/09/13 13:05:27;;;;;;;3.80;3.60;;;24.70;82.40;;;;;;10404688;28;20256;-80
2022/09/13 13:10:35;;;;;;;3.90;3.80;;;24.50;81.80;;;;;;10394584;28;20225;-80
2022/09/13 13:16:24;;;;;;;4.00;3.70;;;24.50;82.30;;;;;;10404072;28;20645;-80
2022/09/13 13:21:33;;;;;;;3.27;3.00;;;24.50;86.70;;;;;;10342858;28;20354;-80
2022/09/13 13:26:48;;;;;;;4.00;3.80;;;24.40;82.50;;;;;;10405985;28;20926;-81
2022/09/13 13:32:11;;;;;;;3.80;3.50;;;24.50;86.30;;;;;;10386148;28;20219;-81
2022/09/13 13:37:35;;;;;;;3.40;3.20;;;24.60;81.20;;;;;;10408633;28;20228;-81
2022/09/13 13:42:39;;;;;;;3.73;3.53;;;24.80;78.20;;;;;;10378966;28;20199;-81
2022/09/13 13:47:54;;;;;;;3.40;3.20;;;24.90;84.50;;;;;;10400401;28;20588;-81
2022/09/13 13:53:04;;;;;;;3.17;3.07;;;24.80;83.20;;;;;;10378769;28;20201;-80
2022/09/13 13:58:24;;;;;;;3.03;2.80;;;24.60;77.60;;;;;;10378532;28;20215;-80
2022/09/13 14:03:40;;;;;;;3.50;3.33;;;24.40;78.90;;;;;;10381430;28;20198;-80
2022/09/13 14:08:52;;;;;;;3.97;3.70;;;24.40;77.40;;;;;;10396142;28;20218;-81
2022/09/13 14:14:13;;;;;;;3.37;3.20;;;24.40;81.20;;;;;;10381520;28;20194;-79
2022/09/13 14:19:30;;;;;;;2.90;2.80;;;24.30;84.20;;;;;;10411453;28;20206;-81
2022/09/13 14:24:36;;;;;;;3.47;3.27;;;24.30;88.60;;;;;;10385103;28;20224;-80
2022/09/13 14:29:40;;;;;;;3.70;3.50;;;24.30;87.70;;;;;;10415747;28;20252;-79
2022/09/13 14:34:52;;;;;;;3.40;3.30;;;24.20;90.00;;;;;;10408275;28;20191;-80
2022/09/13 14:39:55;;;;;;;2.70;2.60;;;24.20;79.30;;;;;;10384771;28;20220;-81
2022/09/13 14:44:58;;;;;;;3.67;3.57;;;24.30;83.90;;;;;;10418508;28;20467;-81
2022/09/13 14:50:06;;;;;;;3.47;3.27;;;24.40;86.30;;;;;;10394273;28;20221;-83
2022/09/13 14:55:13;;;;;;;3.00;2.90;;;24.50;86.90;;;;;;10418537;28;20204;-82
2022/09/13 15:00:19;;;;;;;3.17;3.03;;;24.30;79.60;;;;;;10395123;28;20245;-82
2022/09/13 15:05:24;;;;;;;2.70;2.60;;;24.30;75.50;;;;;;10417524;28;20201;-83
2022/09/13 15:10:29;;;;;;;1.83;1.47;;;24.20;82.60;;;;;;10421407;23;20225;-78
2022/09/13 15:15:37;;;;;;;4.13;3.20;;;24.10;75.50;;;;;;10403783;28;20198;-78
2022/09/13 15:20:49;;;;;;;3.50;3.40;;;24.00;78.20;;;;;;10382671;28;20210;-78
2022/09/13 15:25:54;;;;;;;3.50;3.10;;;24.00;79.00;;;;;;10407832;28;20198;-79
2022/09/13 15:31:00;;;;;;;3.73;3.53;;;24.00;78.60;;;;;;10386441;28;20287;-78
2022/09/13 15:36:25;;;;;;;3.47;3.27;;;24.10;76.20;;;;;;10407764;28;20278;-79
2022/09/13 15:41:32;;;;;;;3.23;3.10;;;24.10;77.30;;;;;;10394952;28;20304;-78
2022/09/13 15:46:45;;;;;;;3.63;3.43;;;24.20;78.20;;;;;;10395219;28;20195;-78
2022/09/13 15:51:52;;;;;;;3.43;3.33;;;24.20;81.70;;;;;;10399990;28;20222;-78
2022/09/13 15:56:54;;;;;;;3.53;3.33;;;24.10;86.00;;;;;;10409976;28;20640;-78
2022/09/13 16:01:59;;;;;;;4.83;4.57;;;24.00;88.40;;;;;;10399127;28;20225;-78
2022/09/13 16:07:01;;;;;;;3.27;3.10;;;23.90;90.60;;;;;;10409740;28;20230;-78
2022/09/13 16:12:04;;;;;;;4.40;4.10;;;23.70;91.30;;;;;;10396844;28;20547;-77
2022/09/13 16:17:11;;;;;;;4.40;4.17;;;23.60;91.40;;;;;;10411073;28;20294;-78
2022/09/13 16:22:14;;;;;;;5.40;5.10;;;23.50;91.60;;;;;;10399564;28;20221;-78
2022/09/13 16:27:18;;;;;;;3.10;2.90;;;23.30;92.30;;;;;;10411510;28;20195;-79
2022/09/13 16:32:21;;;;;;;4.40;4.10;;;23.30;92.70;;;;;;10398662;28;20320;-79
2022/09/13 16:37:23;;;;;;;4.00;3.70;;;23.20;92.60;;;;;;10408854;28;20195;-78
2022/09/13 16:42:26;;;;;;;4.20;4.00;;;23.10;91.90;;;;;;10396109;28;20220;-78
2022/09/13 16:47:30;;;;;;;3.93;3.63;;;23.00;92.70;;;;;;10412451;28;20648;-78
2022/09/13 16:52:32;;;;;;;3.80;3.60;;;23.00;91.90;;;;;;10394543;28;20220;-78
2022/09/13 16:57:34;;;;;;;4.77;4.47;;;23.00;91.80;;;;;;10418898;28;20210;-78
2022/09/13 17:02:38;;;;;;;3.97;3.77;;;22.90;91.30;;;;;;10395532;28;20195;-78
2022/09/13 17:07:40;;;;;;;4.50;3.60;;;22.90;91.00;;;;;;10413543;28;20203;-78
2022/09/13 17:12:42;;;;;;;4.00;3.77;;;22.90;90.10;;;;;;10397355;28;20216;-78
2022/09/13 17:17:45;;;;;;;4.23;3.93;;;22.90;91.30;;;;;;10412311;28;20215;-78
2022/09/13 17:22:47;;;;;;;3.33;3.23;;;22.90;90.70;;;;;;10393072;28;20810;-77
2022/09/13 17:27:50;;;;;;;4.00;3.80;;;22.80;91.10;;;;;;10413242;28;20333;-77
2022/09/13 17:32:53;;;;;;;4.20;4.00;;;22.80;90.70;;;;;;10393647;28;20214;-77
2022/09/13 17:37:55;;;;;;;3.90;3.60;;;22.70;90.90;;;;;;10419188;28;20277;-78
2022/09/13 17:42:57;;;;;;;7.33;4.67;;;22.70;91.10;;;;;;10391748;28;20240;-78
2022/09/13 17:48:01;;;;;;;4.67;4.27;;;22.70;93.00;;;;;;10414234;28;20273;-78
2022/09/13 17:53:03;;;;;;;3.93;3.60;;;22.50;91.60;;;;;;10391590;28;20217;-78
2022/09/13 17:58:05;;;;;;;3.63;3.43;;;22.50;90.80;;;;;;10419090;28;20249;-78
2022/09/13 18:03:09;;;;;;;3.80;3.50;;;22.50;90.80;;;;;;10389035;28;20834;-78
2022/09/13 18:08:11;;;;;;;3.43;3.23;;;22.40;90.40;;;;;;10413580;28;20274;-77
2022/09/13 18:13:13;;;;;;;3.83;3.63;;;22.40;90.60;;;;;;10388447;28;20276;-78
2022/09/13 18:18:16;;;;;;;4.37;4.17;;;22.30;90.60;;;;;;10413246;28;20215;-80
2022/09/13 18:23:19;;;;;;;4.07;3.87;;;22.30;90.50;;;;;;10386663;28;20210;-78
2022/09/13 18:28:21;;;;;;;3.30;3.10;;;22.30;90.80;;;;;;10413940;28;20206;-78
2022/09/13 18:33:25;;;;;;;5.30;4.80;;;22.20;91.10;;;;;;10386613;28;20218;-78
2022/09/13 18:38:28;;;;;;;5.90;3.70;;;22.20;91.20;;;;;;10412599;28;20260;-78
2022/09/13 18:43:31;;;;;;;4.33;4.03;;;22.10;91.00;;;;;;10381745;28;20212;-78
2022/09/13 18:48:37;;;;;;;3.40;3.10;;;22.10;91.10;;;;;;10413434;28;20225;-80
2022/09/13 18:53:40;;;;;;;3.80;3.50;;;22.00;91.20;;;;;;10385483;28;20742;-80
2022/09/13 18:58:43;;;;;;;3.97;3.57;;;22.00;91.30;;;;;;10415209;28;20218;-80
2022/09/13 19:03:52;;;;;;;4.30;4.00;;;22.00;91.60;;;;;;10385116;28;20300;-80
2022/09/13 19:08:56;;;;;;;3.07;2.87;;;22.00;91.60;;;;;;10421613;28;20250;-80
2022/09/13 19:13:58;;;;;;;4.67;4.40;;;21.90;92.10;;;;;;10383641;28;20567;-80
2022/09/13 19:19:02;;;;;;;7.13;3.23;;;21.90;92.00;;;;;;10418848;28;20222;-80
2022/09/13 19:24:05;;;;;;;4.17;3.87;;;22.00;92.20;;;;;;10384767;28;20605;-80
2022/09/13 19:29:09;;;;;;;3.90;3.70;;;21.90;91.90;;;;;;10417082;28;20211;-80
2022/09/13 19:34:13;;;;;;;4.03;3.83;;;22.00;91.80;;;;;;10384127;28;20685;-80
2022/09/13 19:39:15;;;;;;;3.07;2.87;;;22.00;91.70;;;;;;10424124;28;20202;-80
2022/09/13 19:44:18;;;;;;;5.03;4.00;;;22.00;91.90;;;;;;10382212;28;20206;-80
2022/09/13 19:49:21;;;;;;;3.17;3.07;;;22.00;91.90;;;;;;10415793;28;20215;-80
2022/09/13 19:54:24;;;;;;;6.53;3.90;;;21.90;91.90;;;;;;10379951;28;20312;-80
2022/09/13 19:59:26;;;;;;;3.60;3.20;;;21.90;91.90;;;;;;10417628;28;20210;-80
2022/09/13 20:04:29;;;;;;;3.80;3.50;;;21.90;92.00;;;;;;10382983;28;20259;-80
2022/09/13 20:09:32;;;;;;;3.77;3.60;;;21.90;92.20;;;;;;10427257;28;20217;-80
2022/09/13 20:14:34;;;;;;;4.10;3.90;;;21.90;92.20;;;;;;10386046;28;20301;-80
2022/09/13 20:19:37;;;;;;;3.70;3.50;;;21.90;92.00;;;;;;10423403;28;20213;-80
2022/09/13 20:24:40;;;;;;;3.80;3.50;;;21.90;92.10;;;;;;10386793;28;20297;-80
2022/09/13 20:29:42;;;;;;;3.27;3.10;;;21.80;92.20;;;;;;10426571;28;20613;-80
2022/09/13 20:34:46;;;;;;;3.80;3.60;;;21.80;92.50;;;;;;10368289;28;20273;-81
2022/09/13 20:39:48;;;;;;;4.00;3.80;;;21.80;92.50;;;;;;10426022;28;20315;-80
2022/09/13 20:44:50;;;;;;;4.70;4.40;;;21.70;92.60;;;;;;10385465;28;20206;-80
2022/09/13 20:49:53;;;;;;;5.03;4.40;;;21.60;93.00;;;;;;10426907;28;20213;-80
2022/09/13 20:54:55;;;;;;;5.40;3.97;;;21.60;93.10;;;;;;10387253;28;20282;-80
2022/09/13 20:59:57;;;;;;;4.77;4.47;;;21.60;93.30;;;;;;10424588;28;20218;-80
2022/09/13 21:05:01;;;;;;;4.43;3.97;;;21.50;93.40;;;;;;10391853;28;20306;-79
2022/09/13 21:10:04;;;;;;;4.43;4.17;;;21.50;93.80;;;;;;10401156;28;20222;-79
2022/09/13 21:15:06;;;;;;;3.70;3.50;;;21.50;94.60;;;;;;10380084;28;20197;-80
2022/09/13 21:20:10;;;;;;;4.47;4.03;;;21.50;94.10;;;;;;10413408;28;20281;-80
2022/09/13 21:25:12;;;;;;;4.60;4.23;;;21.50;94.50;;;;;;10380220;28;20199;-80
2022/09/13 21:30:15;;;;;;;3.43;3.27;;;21.50;94.80;;;;;;10415637;28;20214;-80
2022/09/13 21:35:19;;;;;;;4.00;3.70;;;21.50;95.40;;;;;;10378788;28;20202;-80
2022/09/13 21:40:21;;;;;;;4.63;4.33;;;21.40;95.50;;;;;;10413581;28;20214;-80
2022/09/13 21:45:23;;;;;;;4.17;3.70;;;21.40;95.60;;;;;;10382771;28;20191;-80
2022/09/13 21:50:27;;;;;;;4.53;4.23;;;21.40;95.60;;;;;;10420866;28;20582;-80
2022/09/13 21:55:29;;;;;;;4.67;4.37;;;21.30;95.90;;;;;;10378826;28;20201;-80
2022/09/13 22:00:32;;;;;;;5.07;4.77;;;21.30;96.50;;;;;;10411864;28;20218;-80
2022/09/13 22:05:35;;;;;;;4.67;4.37;;;21.30;96.60;;;;;;10378160;28;20206;-80
2022/09/13 22:10:37;;;;;;;5.03;4.63;;;21.30;96.40;;;;;;10410790;28;20268;-80
2022/09/13 22:15:39;;;;;;;4.93;4.50;;;21.30;96.50;;;;;;10379156;28;20199;-80
2022/09/13 22:20:43;;;;;;;5.63;4.80;;;21.30;96.20;;;;;;10409817;28;20216;-80
2022/09/13 22:25:44;;;;;;;4.60;4.20;;;21.30;95.90;;;;;;10377977;28;20206;-80
2022/09/13 22:30:47;;;;;;;4.97;4.57;;;21.30;95.90;;;;;;10407919;28;20692;-80
2022/09/13 22:36:00;;;;;;;5.43;4.97;;;21.30;96.00;;;;;;10381403;28;20234;-80
2022/09/13 22:41:06;;;;;;;5.20;4.70;;;21.30;95.90;;;;;;10409402;28;20263;-80
2022/09/13 22:46:11;;;;;;;4.90;4.60;;;21.30;96.70;;;;;;10378105;28;20670;-80
2022/09/13 22:51:16;;;;;;;6.27;5.37;;;21.30;97.00;;;;;;10409025;28;20214;-80
2022/09/13 22:56:20;;;;;;;4.83;4.53;;;21.20;97.30;;;;;;10377938;28;20639;-80
2022/09/13 23:01:24;;;;;;;4.50;4.20;;;21.20;97.50;;;;;;10414968;28;20214;-80
2022/09/13 23:06:28;;;;;;;4.37;4.07;;;21.20;97.60;;;;;;10378213;28;20222;-80
2022/09/13 23:11:32;;;;;;;4.43;4.13;;;21.20;97.80;;;;;;10406871;28;20702;-80
2022/09/13 23:16:37;;;;;;;4.07;3.80;;;21.20;97.90;;;;;;10379279;28;20241;-80
2022/09/13 23:21:41;;;;;;;4.23;3.93;;;21.20;97.90;;;;;;10406718;28;20222;-80
2022/09/13 23:26:44;;;;;;;4.17;3.77;;;21.10;98.10;;;;;;10379059;28;20670;-80
2022/09/13 23:31:47;;;;;;;4.00;3.70;;;21.10;98.50;;;;;;10416919;28;20640;-80
2022/09/13 23:36:51;;;;;;;3.60;3.40;;;21.10;98.30;;;;;;10378347;28;20202;-80
2022/09/13 23:41:53;;;;;;;3.60;3.40;;;21.10;98.20;;;;;;10408850;28;20676;-80
2022/09/13 23:46:56;;;;;;;4.37;4.07;;;21.10;98.50;;;;;;10387041;28;20712;-80
2022/09/13 23:51:59;;;;;;;4.40;4.07;;;21.10;98.40;;;;;;10415554;28;20589;-80
2022/09/13 23:57:01;;;;;;;4.40;4.20;;;21.20;98.90;;;;;;10388797;28;20289;-80
